Morgan Park, Minnesota
Current Conditions -  °F | °C
As of 6:35 PM on Monday 24 Nov 2014 (Local Time) from KSUW Reporting Station
Overcast Overcast  
Wind Chill: 15°   Ceiling: 2500
Heat Index: 21°   Visibility: 10mi
Dew Point: 13°   Wind: 5mph
Humidity: 71%   Direction: 340°NNW
Pressure: 29.7"   Gusts: NA
Location:  46.6753°N, 92.2408°W
Report Text: KSUW 250035Z AUTO 34004KT 10SM OVC025 M06/M10 A2970 RMK AO2 T10611105
Loading
Personal Weather Stations






























Interactive Weather Map New forecast layout! Learn more

10-Day Weather Forecast

Advertisements
Track Severe Weather on mobile